createdAt,value
2023-05-11T00:01:55.372Z,99951.53
2023-05-11T00:04:22.016Z,99962.78
2023-05-11T00:06:48.670Z,99981.88
2023-05-11T00:09:15.255Z,99984.50
2023-05-11T00:11:41.834Z,99992.25
2023-05-11T00:14:08.484Z,99970.53
2023-05-11T00:16:35.159Z,99957.47
2023-05-11T00:19:01.857Z,99943.53
2023-05-11T00:21:28.463Z,99954.78
2023-05-11T00:23:55.155Z,99939.09
2023-05-11T00:26:21.723Z,99929.50
2023-05-11T00:28:48.261Z,99897.38
2023-05-11T00:31:14.841Z,99934.63
2023-05-11T00:33:41.404Z,99939.81
2023-05-11T00:36:08.152Z,99918.09
2023-05-11T00:38:36.574Z,99940.63
2023-05-11T00:41:03.392Z,99914.63
2023-05-11T00:43:30.029Z,99942.41
2023-05-11T00:45:56.549Z,99932.16
2023-05-11T00:48:23.402Z,99944.41
2023-05-11T00:50:50.538Z,99974.00
2023-05-11T00:53:17.133Z,99970.63
2023-05-11T00:55:43.749Z,99992.34
2023-05-11T00:58:10.575Z,100021.81
2023-05-11T01:00:37.170Z,100008.84
2023-05-11T01:03:03.938Z,99990.72
2023-05-11T01:05:36.225Z,99991.59
2023-05-11T01:08:09.257Z,100003.72
2023-05-11T01:10:35.815Z,99993.31
2023-05-11T01:13:21.148Z,100017.56
2023-05-11T01:15:50.434Z,100033.16
2023-05-11T01:18:17.055Z,100055.63
2023-05-11T01:20:46.252Z,100056.47
2023-05-11T01:23:31.248Z,100036.59
2023-05-11T01:25:58.129Z,100040.91
2023-05-11T01:28:43.344Z,100047.00
2023-05-11T01:31:11.395Z,100064.28
2023-05-11T01:33:39.934Z,100086.69
2023-05-11T01:36:09.223Z,100052.97
2023-05-11T01:38:37.696Z,100055.63
2023-05-11T01:41:09.002Z,100065.16
2023-05-11T01:43:37.626Z,100071.19
2023-05-11T01:46:05.094Z,100083.31
2023-05-11T01:48:33.825Z,100051.28
2023-05-11T01:51:01.576Z,100059.06
2023-05-11T01:53:29.865Z,100062.50
2023-05-11T01:55:57.172Z,100065.97
2023-05-11T01:58:24.718Z,100098.84
2023-05-11T02:00:53.283Z,100096.28
2023-05-11T02:03:20.989Z,100130.88
2023-05-11T02:05:48.369Z,100119.66
2023-05-11T02:08:15.168Z,100130.88
2023-05-11T02:10:42.312Z,100112.72
2023-05-11T02:13:10.133Z,100109.25
2023-05-11T02:15:41.673Z,100107.53
2023-05-11T02:18:10.574Z,100135.19
2023-05-11T02:20:39.545Z,100121.38
2023-05-11T02:23:07.159Z,100113.59
2023-05-11T02:25:34.005Z,100119.63
2023-05-11T02:28:00.730Z,100118.78
2023-05-11T02:30:29.086Z,100128.28
2023-05-11T02:32:56.640Z,100109.25
2023-05-11T02:35:28.847Z,100118.78
2023-05-11T02:37:57.086Z,100126.56
2023-05-11T02:40:31.160Z,100121.38
2023-05-11T02:43:04.542Z,100133.47
2023-05-11T02:45:32.496Z,100187.13
2023-05-11T02:48:00.697Z,100162.00
2023-05-11T02:50:28.371Z,100171.50
2023-05-11T02:52:56.987Z,100154.13
2023-05-11T02:55:23.669Z,100167.94
2023-05-11T02:57:50.705Z,100162.75
2023-05-11T03:00:18.247Z,100160.13
2023-05-11T03:02:45.389Z,100165.31
2023-05-11T03:05:12.159Z,100160.97
2023-05-11T03:07:38.732Z,100172.22
2023-05-11T03:10:05.753Z,100147.94
2023-05-11T03:12:34.615Z,100148.81
2023-05-11T03:15:02.512Z,100156.59
2023-05-11T03:17:31.095Z,100157.41
2023-05-11T03:19:58.714Z,100166.09
2023-05-11T03:22:26.074Z,100150.50
2023-05-11T03:24:52.990Z,100166.94
2023-05-11T03:27:19.688Z,100185.16
2023-05-11T03:29:47.117Z,100215.53
2023-05-11T03:32:14.114Z,100188.63
2023-05-11T03:34:41.351Z,100178.19
2023-05-11T03:37:10.678Z,100179.91
2023-05-11T03:39:39.010Z,100167.75
2023-05-11T03:42:05.742Z,100162.53
2023-05-11T03:44:33.068Z,100159.09
2023-05-11T03:47:01.316Z,100163.38
2023-05-11T03:49:28.680Z,100162.50
2023-05-11T03:51:55.996Z,100178.94
2023-05-11T03:54:23.072Z,100193.66
2023-05-11T03:56:49.603Z,100215.34
2023-05-11T03:59:16.643Z,100213.59
2023-05-11T04:01:43.735Z,100206.72
2023-05-11T04:04:10.499Z,100203.19
2023-05-11T04:06:37.123Z,100210.09
2023-05-11T04:09:04.216Z,100221.38
2023-05-11T04:11:30.775Z,100224.84
2023-05-11T04:13:57.319Z,100233.53
2023-05-11T04:16:23.866Z,100221.31
2023-05-11T04:18:50.650Z,100233.41
2023-05-11T04:21:17.253Z,100236.00
2023-05-11T04:23:43.820Z,100209.94
2023-05-11T04:26:10.365Z,100207.31
2023-05-11T04:28:36.963Z,100208.97
2023-05-11T04:31:03.552Z,100202.91
2023-05-11T04:33:30.194Z,100201.13
2023-05-11T04:35:58.729Z,100205.44
2023-05-11T04:38:25.447Z,100191.50
2023-05-11T04:40:51.969Z,100198.38
2023-05-11T04:43:18.877Z,100200.06
2023-05-11T04:45:49.369Z,100187.84
2023-05-11T04:48:19.518Z,100190.38
2023-05-11T04:50:47.256Z,100186.91
2023-05-11T04:53:13.958Z,100180.72
2023-05-11T04:55:40.529Z,100180.66
2023-05-11T04:58:07.077Z,100171.06
2023-05-11T05:00:33.679Z,100170.97
2023-05-11T05:03:00.486Z,100157.88
2023-05-11T05:05:27.070Z,100149.13
2023-05-11T05:07:53.633Z,100145.53
2023-05-11T05:10:20.417Z,100142.00
2023-05-11T05:12:47.075Z,100138.44
2023-05-11T05:15:13.716Z,100140.88
2023-05-11T05:17:40.723Z,100143.34
2023-05-11T05:20:07.862Z,100134.47
2023-05-11T05:22:34.563Z,100123.00
2023-05-11T05:25:01.410Z,100091.63
2023-05-11T05:27:28.096Z,100100.25
2023-05-11T05:29:54.699Z,100092.34
2023-05-11T05:32:21.299Z,100083.53
2023-05-11T05:34:47.944Z,100086.94
2023-05-11T05:37:14.473Z,100086.00
2023-05-11T05:39:41.026Z,100083.38
2023-05-11T05:42:07.857Z,100079.91
2023-05-11T05:44:34.627Z,100071.28
2023-05-11T05:47:01.222Z,100073.06
2023-05-11T05:49:28.000Z,100076.56
2023-05-11T05:51:54.695Z,100071.34
2023-05-11T05:54:21.249Z,100066.13
2023-05-11T05:56:49.217Z,100061.78
2023-05-11T05:59:15.947Z,100034.81
2023-05-11T06:01:46.390Z,100037.38
2023-05-11T06:04:13.566Z,100035.63
2023-05-11T06:06:40.248Z,100031.06
2023-05-11T06:09:06.793Z,100026.44
2023-05-11T06:11:33.581Z,100009.53
2023-05-11T06:14:00.155Z,100008.28
2023-05-11T06:16:27.764Z,99996.69
2023-05-11T06:18:54.495Z,99996.59
2023-05-11T06:21:21.121Z,99957.28
2023-05-11T06:23:47.657Z,99976.44
2023-05-11T06:26:14.261Z,99975.50
2023-05-11T06:28:40.814Z,99977.94
2023-05-11T06:31:07.503Z,99975.19
2023-05-11T06:33:34.334Z,99929.59
2023-05-11T06:36:05.148Z,99939.72
2023-05-11T06:38:32.157Z,99935.88
2023-05-11T06:41:04.811Z,99920.09
2023-05-11T06:43:31.399Z,99919.00
2023-05-11T06:45:58.031Z,99912.56
2023-05-11T06:48:25.894Z,99898.28
2023-05-11T06:50:52.479Z,99885.09
2023-05-11T06:53:19.087Z,99878.81
2023-05-11T06:55:45.710Z,99879.41
2023-05-11T06:58:12.316Z,99865.25
2023-05-11T07:00:39.063Z,99861.72
2023-05-11T07:03:06.172Z,99782.16
2023-05-11T07:05:33.103Z,99835.41
2023-05-11T07:07:59.684Z,99851.84
2023-05-11T07:10:26.516Z,99851.69
2023-05-11T07:12:53.272Z,99839.25
2023-05-11T07:15:19.889Z,99816.41
2023-05-11T07:17:47.887Z,99810.03
2023-05-11T07:20:14.850Z,99805.38
2023-05-11T07:22:41.533Z,99775.28
2023-05-11T07:25:09.704Z,99727.34
2023-05-11T07:27:36.412Z,99741.47
2023-05-11T07:30:06.223Z,99744.84
2023-05-11T07:32:33.357Z,99723.66
2023-05-11T07:34:59.941Z,99727.91
2023-05-11T07:37:26.521Z,99673.63
2023-05-11T07:39:54.389Z,99610.91
2023-05-11T07:42:21.044Z,99610.47
2023-05-11T07:44:47.676Z,99668.38
2023-05-11T07:47:14.278Z,99653.56
2023-05-11T07:49:44.031Z,99661.63
2023-05-11T07:52:11.787Z,99674.69
2023-05-11T07:54:40.318Z,99672.63
2023-05-11T07:57:07.214Z,99635.69
2023-05-11T07:59:33.915Z,99598.53
2023-05-11T08:02:00.586Z,99583.06
2023-05-11T08:04:27.597Z,99554.22
2023-05-11T08:06:54.413Z,99517.06
2023-05-11T08:09:21.006Z,99540.44
2023-05-11T08:11:47.628Z,99545.34
2023-05-11T08:14:14.451Z,99543.53
2023-05-11T08:16:41.209Z,99536.97
2023-05-11T08:19:08.043Z,99541.94
2023-05-11T08:21:34.782Z,99543.09
2023-05-11T08:24:01.308Z,99551.97
2023-05-11T08:26:28.423Z,99539.00
2023-05-11T08:28:55.037Z,99530.50
2023-05-11T08:31:21.676Z,99536.03
2023-05-11T08:33:48.375Z,99531.00
2023-05-11T08:36:15.557Z,99519.47
2023-05-11T08:38:42.239Z,99528.03
2023-05-11T08:41:11.571Z,99531.84
2023-05-11T08:43:39.842Z,99524.22
2023-05-11T08:46:09.887Z,99545.50
2023-05-11T08:48:36.672Z,99543.38
2023-05-11T08:51:03.970Z,99529.81
2023-05-11T08:53:30.941Z,99542.28
2023-05-11T08:55:58.601Z,99542.44
2023-05-11T08:58:26.303Z,99545.06
2023-05-11T09:00:53.743Z,99550.31
2023-05-11T09:03:21.377Z,99547.75
2023-05-11T09:05:49.291Z,99557.19
2023-05-11T09:08:17.937Z,99534.28
2023-05-11T09:10:44.918Z,99533.00
2023-05-11T09:13:12.092Z,99539.50
2023-05-11T09:15:38.968Z,99526.56
2023-05-11T09:18:05.980Z,99480.34
2023-05-11T09:20:33.428Z,99498.50
2023-05-11T09:23:00.538Z,99486.00
2023-05-11T09:25:30.744Z,99481.09
2023-05-11T09:27:58.047Z,99480.69
2023-05-11T09:30:24.927Z,99450.84
2023-05-11T09:32:51.618Z,99431.22
2023-05-11T09:35:22.501Z,99425.72
2023-05-11T09:37:59.078Z,99380.03
2023-05-11T09:40:33.893Z,99303.69
2023-05-11T09:43:01.684Z,99323.19
2023-05-11T09:45:39.123Z,99357.44
2023-05-11T09:48:24.649Z,99372.78
2023-05-11T09:50:53.072Z,99315.44
2023-05-11T09:53:19.639Z,99345.78
2023-05-11T09:55:52.948Z,99342.13
2023-05-11T09:58:19.726Z,99328.78
2023-05-11T10:00:51.262Z,99319.13
2023-05-11T10:03:18.329Z,99301.97
2023-05-11T10:06:05.647Z,99296.88
2023-05-11T10:08:34.441Z,99283.56
2023-05-11T10:11:02.532Z,99271.03
2023-05-11T10:13:30.411Z,99266.94
2023-05-11T10:15:58.513Z,99252.81
2023-05-11T10:18:25.775Z,99252.38
2023-05-11T10:20:53.061Z,99282.88
2023-05-11T10:23:20.231Z,99352.69
2023-05-11T10:25:47.950Z,99527.72
2023-05-11T10:28:15.131Z,99676.44
2023-05-11T10:30:41.818Z,99817.53
2023-05-11T10:33:08.654Z,99998.16
2023-05-11T10:35:38.100Z,100086.81
2023-05-11T10:38:04.708Z,100100.94
2023-05-11T10:40:35.270Z,100188.41
2023-05-11T10:43:04.647Z,100067.88
2023-05-11T10:45:52.321Z,100032.34
2023-05-11T10:48:24.955Z,100007.94
2023-05-11T10:51:10.561Z,100006.03
2023-05-11T10:53:37.163Z,100001.38
2023-05-11T10:56:06.223Z,100018.50
2023-05-11T10:58:36.248Z,100094.78
2023-05-11T11:01:02.870Z,100117.00
2023-05-11T11:03:30.401Z,100126.06
2023-05-11T11:05:59.978Z,100096.22
2023-05-11T11:08:28.675Z,100066.38
2023-05-11T11:10:56.359Z,100067.16
2023-05-11T11:13:24.486Z,100101.88
2023-05-11T11:15:54.293Z,100059.56
2023-05-11T11:18:24.180Z,99984.72
2023-05-11T11:20:54.687Z,99924.06
2023-05-11T11:23:39.715Z,99868.06
2023-05-11T11:26:10.141Z,99792.69
2023-05-11T11:28:57.112Z,99755.44
2023-05-11T11:31:27.686Z,99761.22
2023-05-11T11:33:59.334Z,99783.56
2023-05-11T11:36:55.495Z,99780.06
2023-05-11T11:39:22.508Z,99776.97
2023-05-11T11:42:01.638Z,99780.88
2023-05-11T11:44:28.458Z,99784.69
2023-05-11T11:47:26.353Z,99776.44
2023-05-11T11:49:53.999Z,99767.00
2023-05-11T11:52:29.631Z,99796.94
2023-05-11T11:54:57.160Z,99804.06
2023-05-11T11:57:30.235Z,99845.22
2023-05-11T11:59:57.034Z,99973.56
2023-05-11T12:02:24.467Z,100154.91
2023-05-11T12:04:57.927Z,100159.19
2023-05-11T12:07:25.130Z,100233.06
2023-05-11T12:09:53.076Z,100191.38
2023-05-11T12:12:21.084Z,100269.00
2023-05-11T12:14:50.915Z,100408.72
2023-05-11T12:17:25.219Z,100484.72
2023-05-11T12:19:51.989Z,100467.38
2023-05-11T12:22:25.678Z,100508.25
2023-05-11T12:24:56.203Z,100467.97
2023-05-11T12:27:24.161Z,100347.41
2023-05-11T12:29:51.060Z,100246.91
2023-05-11T12:32:30.366Z,100174.47
2023-05-11T12:34:57.561Z,100103.31
2023-05-11T12:37:24.570Z,100042.88
2023-05-11T12:39:54.154Z,99957.81
2023-05-11T12:42:20.893Z,99913.53
2023-05-11T12:44:47.606Z,99815.44
2023-05-11T12:47:14.635Z,99784.63
2023-05-11T12:49:44.178Z,99781.31
2023-05-11T12:52:12.431Z,99775.72
2023-05-11T12:54:40.160Z,99645.41
2023-05-11T12:57:08.012Z,99658.22
2023-05-11T12:59:39.248Z,99589.66
2023-05-11T13:02:07.039Z,99502.25
2023-05-11T13:04:33.607Z,99310.78
2023-05-11T13:07:00.198Z,99285.56
2023-05-11T13:09:27.383Z,99219.00
2023-05-11T13:12:12.857Z,99153.53
2023-05-11T13:14:40.048Z,99037.19
2023-05-11T13:17:06.788Z,99048.16
2023-05-11T13:19:33.998Z,99096.06
2023-05-11T13:22:01.065Z,99070.22
2023-05-11T13:24:27.644Z,99068.94
2023-05-11T13:26:55.210Z,99041.22
2023-05-11T13:29:21.833Z,99070.66
2023-05-11T13:31:49.869Z,99065.81
2023-05-11T13:34:16.834Z,99019.53
2023-05-11T13:36:43.532Z,99109.91
2023-05-11T13:39:10.104Z,99133.72
2023-05-11T13:41:36.853Z,99177.94
2023-05-11T13:44:03.650Z,99220.75
2023-05-11T13:46:30.340Z,99225.75
2023-05-11T13:48:58.295Z,99169.84
2023-05-11T13:51:24.830Z,99121.25
2023-05-11T13:53:51.397Z,99056.56
2023-05-11T13:56:19.675Z,99016.72
2023-05-11T13:58:46.260Z,98927.59
2023-05-11T14:01:12.975Z,98948.97
2023-05-11T14:03:39.950Z,98971.75
2023-05-11T14:06:06.705Z,98994.13
2023-05-11T14:08:33.285Z,98946.78
2023-05-11T14:10:59.815Z,98947.91
2023-05-11T14:13:26.382Z,98882.75
2023-05-11T14:15:53.005Z,98891.00
2023-05-11T14:18:19.770Z,98906.28
2023-05-11T14:20:46.520Z,98910.69
2023-05-11T14:23:13.518Z,98941.16
2023-05-11T14:25:40.081Z,98786.44
2023-05-11T14:28:06.814Z,98843.63
2023-05-11T14:30:33.750Z,98856.75
2023-05-11T14:33:00.882Z,98812.97
2023-05-11T14:35:27.603Z,98854.38
2023-05-11T14:37:54.785Z,98818.25
2023-05-11T14:40:21.541Z,98821.69
2023-05-11T14:42:48.648Z,98843.84
2023-05-11T14:45:16.602Z,98851.28
2023-05-11T14:47:43.478Z,98852.38
2023-05-11T14:50:10.406Z,98851.19
2023-05-11T14:52:36.964Z,98852.81
2023-05-11T14:55:03.675Z,98865.66
2023-05-11T14:57:30.398Z,98897.78
2023-05-11T15:00:00.223Z,98944.28
2023-05-11T15:02:27.486Z,98954.97
2023-05-11T15:04:54.234Z,98956.69
2023-05-11T15:07:21.279Z,98939.19
2023-05-11T15:09:47.887Z,98947.53
2023-05-11T15:12:14.442Z,98974.00
2023-05-11T15:14:40.984Z,99003.00
2023-05-11T15:17:07.566Z,99003.31
2023-05-11T15:19:34.199Z,99064.56
2023-05-11T15:22:00.811Z,99132.72
2023-05-11T15:24:27.441Z,99186.38
2023-05-11T15:26:54.008Z,99283.56
2023-05-11T15:29:22.275Z,99296.00
2023-05-11T15:31:48.963Z,99286.88
2023-05-11T15:34:16.182Z,99354.38
2023-05-11T15:36:42.922Z,99441.56
2023-05-11T15:39:09.504Z,99443.13
2023-05-11T15:41:36.038Z,99496.84
2023-05-11T15:44:02.684Z,99456.94
2023-05-11T15:46:29.390Z,99424.97
2023-05-11T15:48:58.250Z,99467.22
2023-05-11T15:51:26.201Z,99520.44
2023-05-11T15:53:52.877Z,99581.44
2023-05-11T15:56:19.647Z,99602.84
2023-05-11T15:58:46.356Z,99658.81
2023-05-11T16:01:13.215Z,99639.97
2023-05-11T16:03:39.869Z,99708.47
2023-05-11T16:06:06.650Z,99689.34
2023-05-11T16:08:33.225Z,99732.31
2023-05-11T16:10:59.797Z,99780.81
2023-05-11T16:13:26.334Z,99833.97
2023-05-11T16:15:53.112Z,99807.34
2023-05-11T16:18:20.051Z,99836.22
2023-05-11T16:20:46.796Z,99830.78
2023-05-11T16:23:13.750Z,99935.34
2023-05-11T16:25:40.321Z,99967.97
2023-05-11T16:28:06.974Z,100018.88
2023-05-11T16:30:33.654Z,100073.34
2023-05-11T16:33:00.377Z,100063.78
2023-05-11T16:35:27.126Z,100019.25
2023-05-11T16:37:55.112Z,100027.97
2023-05-11T16:40:22.046Z,100030.63
2023-05-11T16:42:49.106Z,100052.44
2023-05-11T16:45:16.593Z,100019.25
2023-05-11T16:47:45.376Z,100063.91
2023-05-11T16:50:16.125Z,100031.66
2023-05-11T16:52:43.491Z,100039.66
2023-05-11T16:55:10.306Z,100065.84
2023-05-11T16:57:37.036Z,100058.03
2023-05-11T17:00:04.299Z,100097.25
2023-05-11T17:02:31.481Z,100075.66
2023-05-11T17:04:58.344Z,100064.41
2023-05-11T17:07:25.272Z,100047.88
2023-05-11T17:09:56.367Z,100062.75
2023-05-11T17:12:23.708Z,100051.59
2023-05-11T17:14:50.281Z,100111.03
2023-05-11T17:17:16.921Z,100097.28
2023-05-11T17:19:43.488Z,100106.19
2023-05-11T17:22:10.002Z,100107.16
2023-05-11T17:24:37.204Z,100148.16
2023-05-11T17:27:03.986Z,100109.94
2023-05-11T17:29:31.100Z,100139.59
2023-05-11T17:31:57.856Z,100124.00
2023-05-11T17:34:27.941Z,100111.03
2023-05-11T17:36:55.378Z,100192.03
2023-05-11T17:39:21.923Z,100181.69
2023-05-11T17:41:48.672Z,100153.94
2023-05-11T17:44:15.278Z,100141.03
2023-05-11T17:46:41.934Z,100165.41
2023-05-11T17:49:08.934Z,100182.88
2023-05-11T17:51:35.551Z,100252.53
2023-05-11T17:54:02.237Z,100403.91
2023-05-11T17:56:28.848Z,100469.16
2023-05-11T17:58:56.273Z,100354.50
2023-05-11T18:01:23.045Z,100465.81
2023-05-11T18:03:49.948Z,100510.13
2023-05-11T18:06:17.161Z,100504.06
2023-05-11T18:08:43.936Z,100512.75
2023-05-11T18:11:12.999Z,100414.59
2023-05-11T18:13:39.895Z,100451.09
2023-05-11T18:16:07.229Z,100488.44
2023-05-11T18:18:34.438Z,100429.38
2023-05-11T18:21:05.068Z,100460.63
2023-05-11T18:23:32.227Z,100408.53
2023-05-11T18:25:58.838Z,100337.31
2023-05-11T18:28:25.549Z,100458.06
2023-05-11T18:30:52.420Z,100467.63
2023-05-11T18:33:18.998Z,100438.97
2023-05-11T18:35:50.247Z,100424.19
2023-05-11T18:38:16.808Z,100391.19
2023-05-11T18:40:43.418Z,100366.03
2023-05-11T18:43:09.983Z,100333.84
2023-05-11T18:45:36.545Z,100307.81
2023-05-11T18:48:03.934Z,100280.03
2023-05-11T18:50:30.705Z,100246.16
2023-05-11T18:52:57.435Z,100232.31
2023-05-11T18:55:24.229Z,100197.53
2023-05-11T18:57:51.600Z,100167.09
2023-05-11T19:00:18.624Z,100168.88
2023-05-11T19:02:48.153Z,100143.69
2023-05-11T19:05:15.352Z,100128.06
2023-05-11T19:07:42.088Z,100109.03
2023-05-11T19:10:08.906Z,100085.59
2023-05-11T19:12:35.490Z,100063.03
2023-05-11T19:15:02.158Z,100043.97
2023-05-11T19:17:29.348Z,100026.66
2023-05-11T19:19:56.961Z,100014.56
2023-05-11T19:22:26.735Z,100012.88
2023-05-11T19:24:53.502Z,99993.81
2023-05-11T19:27:20.114Z,99985.19
2023-05-11T19:29:49.154Z,99971.34
2023-05-11T19:32:15.847Z,99965.31
2023-05-11T19:34:42.427Z,99948.75
2023-05-11T19:37:09.220Z,99947.91
2023-05-11T19:39:35.787Z,99950.59
2023-05-11T19:42:02.634Z,99953.16
2023-05-11T19:44:32.881Z,99944.53
2023-05-11T19:46:59.591Z,99939.28
2023-05-11T19:49:26.221Z,99952.31
2023-05-11T19:51:52.770Z,99941.91
2023-05-11T19:54:19.290Z,99947.19
2023-05-11T19:56:46.639Z,99949.78
2023-05-11T19:59:13.204Z,99953.25
2023-05-11T20:01:39.749Z,99952.38
2023-05-11T20:04:06.517Z,99948.94
2023-05-11T20:06:33.459Z,99947.19
2023-05-11T20:09:00.044Z,99944.56
2023-05-11T20:11:26.672Z,99955.84
2023-05-11T20:13:53.831Z,99952.34
2023-05-11T20:16:25.264Z,99950.63
2023-05-11T20:18:51.902Z,99941.94
2023-05-11T20:21:18.485Z,99942.75
2023-05-11T20:23:45.261Z,99944.47
2023-05-11T20:26:11.840Z,99941.03
2023-05-11T20:28:39.650Z,99947.06
2023-05-11T20:31:06.351Z,99941.03
2023-05-11T20:36:02.385Z,99931.50
2023-05-11T20:38:29.048Z,99935.84
2023-05-11T20:40:58.770Z,99924.56
2023-05-11T20:43:28.310Z,99935.00
2023-05-11T20:45:55.229Z,99919.41
2023-05-11T20:48:32.416Z,99912.44
2023-05-11T20:51:02.737Z,99909.84
2023-05-11T20:53:30.906Z,99908.97
2023-05-11T20:55:57.570Z,99915.06
2023-05-11T20:58:24.151Z,99907.22
2023-05-11T21:00:51.551Z,99912.44
2023-05-11T21:03:18.413Z,99910.69
2023-05-11T21:05:45.249Z,99907.22
2023-05-11T21:08:11.811Z,99902.88
2023-05-11T21:10:38.356Z,99916.78
2023-05-11T21:13:04.899Z,99902.00
2023-05-11T21:15:31.528Z,99914.16
2023-05-11T21:17:58.520Z,99905.44
2023-05-11T21:20:25.206Z,99907.13
2023-05-11T21:22:52.476Z,99928.03
2023-05-11T21:25:19.256Z,99919.41
2023-05-11T21:27:45.979Z,99919.44
2023-05-11T21:30:12.623Z,99927.31
2023-05-11T21:32:39.214Z,99928.19
2023-05-11T21:35:06.012Z,99930.78
2023-05-11T21:37:34.006Z,99916.09
2023-05-11T21:40:00.820Z,99933.53
2023-05-11T21:42:27.482Z,99928.38
2023-05-11T21:44:54.019Z,99935.38
2023-05-11T21:47:20.579Z,99929.31
2023-05-11T21:49:48.533Z,99930.19
2023-05-11T21:52:16.114Z,99931.91
2023-05-11T21:54:42.667Z,99921.50
2023-05-11T21:57:09.299Z,99924.09
2023-05-11T21:59:36.208Z,99932.81
2023-05-11T22:02:03.801Z,99921.50
2023-05-11T22:04:30.598Z,99923.25
2023-05-11T22:07:01.533Z,99928.47
2023-05-11T22:09:28.451Z,99920.66
2023-05-11T22:11:55.062Z,99927.56
2023-05-11T22:14:24.131Z,99923.25
2023-05-11T22:16:50.750Z,99935.44
2023-05-11T22:19:17.389Z,99932.03
2023-05-11T22:21:43.906Z,99928.59
2023-05-11T22:24:10.614Z,99932.09
2023-05-11T22:26:37.165Z,99923.44
2023-05-11T22:29:04.089Z,99927.81
2023-05-11T22:31:31.063Z,99935.66
2023-05-11T22:33:58.649Z,99926.19
2023-05-11T22:36:25.190Z,99930.53
2023-05-11T22:38:51.782Z,99932.31
2023-05-11T22:41:18.404Z,99932.31
2023-05-11T22:43:45.215Z,99929.72
2023-05-11T22:46:11.799Z,99926.28
2023-05-11T22:48:38.731Z,99939.31
2023-05-11T22:51:06.428Z,99934.13
2023-05-11T22:53:33.151Z,99927.16
2023-05-11T22:56:09.318Z,99920.22
2023-05-11T22:58:35.952Z,99925.44
2023-05-11T23:01:02.529Z,99917.66
2023-05-11T23:03:29.183Z,99915.09
2023-05-11T23:05:55.794Z,99925.50
2023-05-11T23:08:22.945Z,99936.69
2023-05-11T23:10:50.247Z,99921.97
2023-05-11T23:13:17.636Z,99932.44
2023-05-11T23:15:44.336Z,99930.75
2023-05-11T23:18:11.149Z,99932.56
2023-05-11T23:20:37.861Z,99927.38
2023-05-11T23:23:04.504Z,99929.16
2023-05-11T23:25:31.069Z,99931.78
2023-05-11T23:27:57.626Z,99919.63
2023-05-11T23:30:24.189Z,99929.13
2023-05-11T23:32:50.795Z,99923.84
2023-05-11T23:35:17.423Z,99928.94
2023-05-11T23:37:44.013Z,99927.13
2023-05-11T23:40:10.689Z,99913.13
2023-05-11T23:42:37.259Z,99933.84
2023-05-11T23:45:04.420Z,99919.94
2023-05-11T23:47:32.519Z,99915.53
2023-05-11T23:49:59.656Z,99912.88
2023-05-11T23:52:26.197Z,99907.63
2023-05-11T23:54:53.243Z,99907.59
2023-05-11T23:57:19.769Z,99926.69
2023-05-11T23:59:46.310Z,99918.00
